sensor_id;sensor_type;location;lat;lon;timestamp;temperature;humidity
68217;DHT22;55037;52.354;4.992;2022-11-10T00:00:05;11.90;92.60
68217;DHT22;55037;52.354;4.992;2022-11-10T00:02:52;11.90;92.50
68217;DHT22;55037;52.354;4.992;2022-11-10T00:05:39;11.90;92.50
68217;DHT22;55037;52.354;4.992;2022-11-10T00:08:24;11.80;92.40
68217;DHT22;55037;52.354;4.992;2022-11-10T00:11:10;11.90;92.50
68217;DHT22;55037;52.354;4.992;2022-11-10T00:13:56;11.90;92.40
68217;DHT22;55037;52.354;4.992;2022-11-10T00:17:00;11.90;92.40
68217;DHT22;55037;52.354;4.992;2022-11-10T00:19:46;11.90;92.30
68217;DHT22;55037;52.354;4.992;2022-11-10T00:22:33;11.80;92.30
68217;DHT22;55037;52.354;4.992;2022-11-10T00:25:19;11.80;92.20
68217;DHT22;55037;52.354;4.992;2022-11-10T00:28:05;11.80;92.20
68217;DHT22;55037;52.354;4.992;2022-11-10T00:30:51;11.80;92.40
68217;DHT22;55037;52.354;4.992;2022-11-10T00:33:38;11.80;92.50
68217;DHT22;55037;52.354;4.992;2022-11-10T00:36:25;11.80;92.90
68217;DHT22;55037;52.354;4.992;2022-11-10T00:39:11;11.80;92.10
68217;DHT22;55037;52.354;4.992;2022-11-10T00:41:57;11.80;92.40
68217;DHT22;55037;52.354;4.992;2022-11-10T00:44:43;11.70;92.60
68217;DHT22;55037;52.354;4.992;2022-11-10T00:47:29;11.70;92.60
68217;DHT22;55037;52.354;4.992;2022-11-10T00:50:15;11.70;92.70
68217;DHT22;55037;52.354;4.992;2022-11-10T00:53:00;11.70;92.70
68217;DHT22;55037;52.354;4.992;2022-11-10T00:55:46;11.70;92.80
68217;DHT22;55037;52.354;4.992;2022-11-10T00:58:33;11.70;92.70
68217;DHT22;55037;52.354;4.992;2022-11-10T01:01:21;11.80;92.70
68217;DHT22;55037;52.354;4.992;2022-11-10T01:04:08;11.80;92.60
68217;DHT22;55037;52.354;4.992;2022-11-10T01:06:54;11.80;92.50
68217;DHT22;55037;52.354;4.992;2022-11-10T01:09:40;11.80;92.50
68217;DHT22;55037;52.354;4.992;2022-11-10T01:12:29;11.80;92.60
68217;DHT22;55037;52.354;4.992;2022-11-10T01:15:15;11.70;92.60
68217;DHT22;55037;52.354;4.992;2022-11-10T01:18:01;11.70;92.70
68217;DHT22;55037;52.354;4.992;2022-11-10T01:20:50;11.70;92.60
68217;DHT22;55037;52.354;4.992;2022-11-10T01:23:36;11.70;92.70
68217;DHT22;55037;52.354;4.992;2022-11-10T01:26:22;11.70;92.70
68217;DHT22;55037;52.354;4.992;2022-11-10T01:29:08;11.70;92.30
68217;DHT22;55037;52.354;4.992;2022-11-10T01:31:54;11.80;92.70
68217;DHT22;55037;52.354;4.992;2022-11-10T01:34:40;11.80;92.80
68217;DHT22;55037;52.354;4.992;2022-11-10T01:37:26;11.90;92.80
68217;DHT22;55037;52.354;4.992;2022-11-10T01:40:12;11.90;92.80
68217;DHT22;55037;52.354;4.992;2022-11-10T01:42:58;12.00;92.60
68217;DHT22;55037;52.354;4.992;2022-11-10T01:45:48;12.10;92.40
68217;DHT22;55037;52.354;4.992;2022-11-10T01:48:50;12.10;92.50
68217;DHT22;55037;52.354;4.992;2022-11-10T01:54:40;12.30;92.20
68217;DHT22;55037;52.354;4.992;2022-11-10T01:57:27;12.30;91.90
68217;DHT22;55037;52.354;4.992;2022-11-10T02:00:14;12.20;91.90
68217;DHT22;55037;52.354;4.992;2022-11-10T02:03:12;12.20;92.00
68217;DHT22;55037;52.354;4.992;2022-11-10T02:05:59;12.20;92.00
68217;DHT22;55037;52.354;4.992;2022-11-10T02:08:46;12.20;92.00
68217;DHT22;55037;52.354;4.992;2022-11-10T02:11:32;12.10;92.00
68217;DHT22;55037;52.354;4.992;2022-11-10T02:14:18;12.20;92.10
68217;DHT22;55037;52.354;4.992;2022-11-10T02:17:04;12.20;92.20
68217;DHT22;55037;52.354;4.992;2022-11-10T02:19:50;12.20;92.20
68217;DHT22;55037;52.354;4.992;2022-11-10T02:22:36;12.30;92.10
68217;DHT22;55037;52.354;4.992;2022-11-10T02:25:22;12.30;92.10
68217;DHT22;55037;52.354;4.992;2022-11-10T02:28:09;12.40;92.50
68217;DHT22;55037;52.354;4.992;2022-11-10T02:30:55;12.40;91.90
68217;DHT22;55037;52.354;4.992;2022-11-10T02:33:41;12.40;91.70
68217;DHT22;55037;52.354;4.992;2022-11-10T02:36:27;12.40;91.60
68217;DHT22;55037;52.354;4.992;2022-11-10T02:39:13;12.30;91.70
68217;DHT22;55037;52.354;4.992;2022-11-10T02:41:59;12.20;91.80
68217;DHT22;55037;52.354;4.992;2022-11-10T02:44:45;12.10;91.90
68217;DHT22;55037;52.354;4.992;2022-11-10T02:47:31;12.10;92.00
68217;DHT22;55037;52.354;4.992;2022-11-10T02:50:17;12.10;92.10
68217;DHT22;55037;52.354;4.992;2022-11-10T02:53:03;12.10;92.10
68217;DHT22;55037;52.354;4.992;2022-11-10T02:55:49;12.10;92.00
68217;DHT22;55037;52.354;4.992;2022-11-10T02:58:35;12.10;92.00
68217;DHT22;55037;52.354;4.992;2022-11-10T03:01:21;12.10;92.10
68217;DHT22;55037;52.354;4.992;2022-11-10T03:04:07;12.00;92.00
68217;DHT22;55037;52.354;4.992;2022-11-10T03:06:52;12.00;92.20
68217;DHT22;55037;52.354;4.992;2022-11-10T03:09:38;12.00;92.10
68217;DHT22;55037;52.354;4.992;2022-11-10T03:12:24;12.00;92.10
68217;DHT22;55037;52.354;4.992;2022-11-10T03:15:10;12.00;92.20
68217;DHT22;55037;52.354;4.992;2022-11-10T03:18:02;11.90;92.30
68217;DHT22;55037;52.354;4.992;2022-11-10T03:20:48;11.90;92.30
68217;DHT22;55037;52.354;4.992;2022-11-10T03:23:35;11.90;92.50
68217;DHT22;55037;52.354;4.992;2022-11-10T03:26:21;12.00;92.50
68217;DHT22;55037;52.354;4.992;2022-11-10T03:29:07;11.90;92.20
68217;DHT22;55037;52.354;4.992;2022-11-10T03:31:53;11.90;92.10
68217;DHT22;55037;52.354;4.992;2022-11-10T03:34:39;11.80;92.20
68217;DHT22;55037;52.354;4.992;2022-11-10T03:37:25;11.80;92.30
68217;DHT22;55037;52.354;4.992;2022-11-10T03:40:11;11.70;92.40
68217;DHT22;55037;52.354;4.992;2022-11-10T03:42:57;11.80;92.50
68217;DHT22;55037;52.354;4.992;2022-11-10T03:45:45;11.80;92.50
68217;DHT22;55037;52.354;4.992;2022-11-10T03:48:31;11.80;92.40
68217;DHT22;55037;52.354;4.992;2022-11-10T03:51:17;11.80;92.30
68217;DHT22;55037;52.354;4.992;2022-11-10T03:54:03;11.80;92.30
68217;DHT22;55037;52.354;4.992;2022-11-10T03:56:49;11.80;92.30
68217;DHT22;55037;52.354;4.992;2022-11-10T03:59:35;11.80;92.30
68217;DHT22;55037;52.354;4.992;2022-11-10T04:02:21;11.80;92.30
68217;DHT22;55037;52.354;4.992;2022-11-10T04:05:07;11.90;92.30
68217;DHT22;55037;52.354;4.992;2022-11-10T04:08:14;11.90;92.20
68217;DHT22;55037;52.354;4.992;2022-11-10T04:11:19;11.90;92.00
68217;DHT22;55037;52.354;4.992;2022-11-10T04:14:23;11.90;91.80
68217;DHT22;55037;52.354;4.992;2022-11-10T04:17:28;11.90;91.90
68217;DHT22;55037;52.354;4.992;2022-11-10T04:20:16;11.80;91.90
68217;DHT22;55037;52.354;4.992;2022-11-10T04:23:02;11.80;91.90
68217;DHT22;55037;52.354;4.992;2022-11-10T04:26:09;11.80;92.30
68217;DHT22;55037;52.354;4.992;2022-11-10T04:29:16;11.70;92.00
68217;DHT22;55037;52.354;4.992;2022-11-10T04:32:02;11.70;92.00
68217;DHT22;55037;52.354;4.992;2022-11-10T04:34:48;11.70;92.00
68217;DHT22;55037;52.354;4.992;2022-11-10T04:37:33;11.60;92.50
68217;DHT22;55037;52.354;4.992;2022-11-10T04:40:19;11.60;92.10
68217;DHT22;55037;52.354;4.992;2022-11-10T04:43:05;11.60;92.10
68217;DHT22;55037;52.354;4.992;2022-11-10T04:45:51;11.60;92.10
68217;DHT22;55037;52.354;4.992;2022-11-10T04:48:39;11.50;92.10
68217;DHT22;55037;52.354;4.992;2022-11-10T04:51:31;11.50;92.10
68217;DHT22;55037;52.354;4.992;2022-11-10T04:54:17;11.50;92.20
68217;DHT22;55037;52.354;4.992;2022-11-10T04:57:03;11.40;92.10
68217;DHT22;55037;52.354;4.992;2022-11-10T04:59:49;11.40;92.10
68217;DHT22;55037;52.354;4.992;2022-11-10T05:02:35;11.40;92.20
68217;DHT22;55037;52.354;4.992;2022-11-10T05:05:24;11.40;92.30
68217;DHT22;55037;52.354;4.992;2022-11-10T05:08:10;11.50;91.80
68217;DHT22;55037;52.354;4.992;2022-11-10T05:10:56;11.40;92.10
68217;DHT22;55037;52.354;4.992;2022-11-10T05:13:43;11.40;92.20
68217;DHT22;55037;52.354;4.992;2022-11-10T05:16:29;11.40;92.20
68217;DHT22;55037;52.354;4.992;2022-11-10T05:19:15;11.40;91.80
68217;DHT22;55037;52.354;4.992;2022-11-10T05:22:00;11.40;92.20
68217;DHT22;55037;52.354;4.992;2022-11-10T05:24:47;11.40;92.20
68217;DHT22;55037;52.354;4.992;2022-11-10T05:27:32;11.30;92.30
68217;DHT22;55037;52.354;4.992;2022-11-10T05:30:18;11.30;92.30
68217;DHT22;55037;52.354;4.992;2022-11-10T05:33:05;11.30;92.40
68217;DHT22;55037;52.354;4.992;2022-11-10T05:35:51;11.20;92.50
68217;DHT22;55037;52.354;4.992;2022-11-10T05:38:37;11.30;92.30
68217;DHT22;55037;52.354;4.992;2022-11-10T05:41:27;11.20;92.70
68217;DHT22;55037;52.354;4.992;2022-11-10T05:44:13;11.20;92.70
68217;DHT22;55037;52.354;4.992;2022-11-10T05:46:59;11.20;92.70
68217;DHT22;55037;52.354;4.992;2022-11-10T05:49:45;11.30;92.70
68217;DHT22;55037;52.354;4.992;2022-11-10T05:52:31;11.20;92.60
68217;DHT22;55037;52.354;4.992;2022-11-10T05:55:19;11.30;92.70
68217;DHT22;55037;52.354;4.992;2022-11-10T05:58:05;11.30;92.70
68217;DHT22;55037;52.354;4.992;2022-11-10T06:00:51;11.30;92.60
68217;DHT22;55037;52.354;4.992;2022-11-10T06:03:37;11.30;92.60
68217;DHT22;55037;52.354;4.992;2022-11-10T06:06:23;11.20;93.00
68217;DHT22;55037;52.354;4.992;2022-11-10T06:09:08;11.20;92.60
68217;DHT22;55037;52.354;4.992;2022-11-10T06:11:54;11.20;92.60
68217;DHT22;55037;52.354;4.992;2022-11-10T06:14:40;11.20;92.60
68217;DHT22;55037;52.354;4.992;2022-11-10T06:17:26;11.10;92.70
68217;DHT22;55037;52.354;4.992;2022-11-10T06:20:13;11.10;92.70
68217;DHT22;55037;52.354;4.992;2022-11-10T06:23:08;11.10;92.80
68217;DHT22;55037;52.354;4.992;2022-11-10T06:25:55;11.10;92.90
68217;DHT22;55037;52.354;4.992;2022-11-10T06:28:40;11.10;92.90
68217;DHT22;55037;52.354;4.992;2022-11-10T06:31:26;11.10;92.90
68217;DHT22;55037;52.354;4.992;2022-11-10T06:34:13;11.20;92.90
68217;DHT22;55037;52.354;4.992;2022-11-10T06:36:58;11.20;92.90
68217;DHT22;55037;52.354;4.992;2022-11-10T06:39:44;11.20;92.90
68217;DHT22;55037;52.354;4.992;2022-11-10T06:42:31;11.20;92.80
68217;DHT22;55037;52.354;4.992;2022-11-10T06:45:17;11.20;93.20
68217;DHT22;55037;52.354;4.992;2022-11-10T06:48:05;11.20;92.60
68217;DHT22;55037;52.354;4.992;2022-11-10T06:50:51;11.10;92.90
68217;DHT22;55037;52.354;4.992;2022-11-10T06:53:37;11.20;92.90
68217;DHT22;55037;52.354;4.992;2022-11-10T06:56:22;11.30;93.00
68217;DHT22;55037;52.354;4.992;2022-11-10T06:59:08;11.30;93.00
68217;DHT22;55037;52.354;4.992;2022-11-10T07:01:54;11.40;92.90
68217;DHT22;55037;52.354;4.992;2022-11-10T07:04:40;11.40;92.80
68217;DHT22;55037;52.354;4.992;2022-11-10T07:07:27;11.40;92.70
68217;DHT22;55037;52.354;4.992;2022-11-10T07:10:13;11.50;92.80
68217;DHT22;55037;52.354;4.992;2022-11-10T07:13:00;11.40;92.60
68217;DHT22;55037;52.354;4.992;2022-11-10T07:15:46;11.50;92.60
68217;DHT22;55037;52.354;4.992;2022-11-10T07:18:36;11.50;92.60
68217;DHT22;55037;52.354;4.992;2022-11-10T07:21:22;11.50;92.30
68217;DHT22;55037;52.354;4.992;2022-11-10T07:24:07;11.50;92.30
68217;DHT22;55037;52.354;4.992;2022-11-10T07:26:53;11.50;92.30
68217;DHT22;55037;52.354;4.992;2022-11-10T07:29:39;11.50;92.30
68217;DHT22;55037;52.354;4.992;2022-11-10T07:32:25;11.50;92.30
68217;DHT22;55037;52.354;4.992;2022-11-10T07:35:11;11.70;92.40
68217;DHT22;55037;52.354;4.992;2022-11-10T07:38:00;11.70;92.20
68217;DHT22;55037;52.354;4.992;2022-11-10T07:40:48;11.80;92.10
68217;DHT22;55037;52.354;4.992;2022-11-10T07:43:34;11.90;92.00
68217;DHT22;55037;52.354;4.992;2022-11-10T07:46:20;12.20;92.30
68217;DHT22;55037;52.354;4.992;2022-11-10T07:49:06;12.40;91.50
68217;DHT22;55037;52.354;4.992;2022-11-10T07:51:52;12.50;90.90
68217;DHT22;55037;52.354;4.992;2022-11-10T07:54:38;12.70;90.80
68217;DHT22;55037;52.354;4.992;2022-11-10T07:57:24;12.80;90.80
68217;DHT22;55037;52.354;4.992;2022-11-10T08:00:11;12.90;90.20
68217;DHT22;55037;52.354;4.992;2022-11-10T08:03:25;13.10;90.70
68217;DHT22;55037;52.354;4.992;2022-11-10T08:06:11;14.30;90.30
68217;DHT22;55037;52.354;4.992;2022-11-10T08:08:57;15.80;85.20
68217;DHT22;55037;52.354;4.992;2022-11-10T08:11:43;17.30;77.30
68217;DHT22;55037;52.354;4.992;2022-11-10T08:14:29;17.40;71.40
68217;DHT22;55037;52.354;4.992;2022-11-10T08:17:16;16.30;74.00
68217;DHT22;55037;52.354;4.992;2022-11-10T08:20:02;15.90;76.70
68217;DHT22;55037;52.354;4.992;2022-11-10T08:22:51;15.60;77.20
68217;DHT22;55037;52.354;4.992;2022-11-10T08:25:40;15.70;79.00
68217;DHT22;55037;52.354;4.992;2022-11-10T08:28:27;15.60;75.20
68217;DHT22;55037;52.354;4.992;2022-11-10T08:31:13;15.50;76.20
68217;DHT22;55037;52.354;4.992;2022-11-10T08:33:59;14.90;77.80
68217;DHT22;55037;52.354;4.992;2022-11-10T08:36:44;14.40;79.90
68217;DHT22;55037;52.354;4.992;2022-11-10T08:39:30;13.90;81.60
68217;DHT22;55037;52.354;4.992;2022-11-10T08:42:23;13.80;83.20
68217;DHT22;55037;52.354;4.992;2022-11-10T08:45:09;13.70;84.10
68217;DHT22;55037;52.354;4.992;2022-11-10T08:48:00;14.20;86.30
68217;DHT22;55037;52.354;4.992;2022-11-10T08:50:46;15.30;81.30
68217;DHT22;55037;52.354;4.992;2022-11-10T08:53:33;15.80;78.70
68217;DHT22;55037;52.354;4.992;2022-11-10T08:56:19;16.40;77.60
68217;DHT22;55037;52.354;4.992;2022-11-10T08:59:05;18.00;72.50
68217;DHT22;55037;52.354;4.992;2022-11-10T09:01:51;18.90;66.60
68217;DHT22;55037;52.354;4.992;2022-11-10T09:04:36;19.40;66.80
68217;DHT22;55037;52.354;4.992;2022-11-10T09:07:22;20.90;61.40
68217;DHT22;55037;52.354;4.992;2022-11-10T09:10:08;22.20;56.50
68217;DHT22;55037;52.354;4.992;2022-11-10T09:12:58;23.30;50.70
68217;DHT22;55037;52.354;4.992;2022-11-10T09:15:44;23.10;47.40
68217;DHT22;55037;52.354;4.992;2022-11-10T09:18:30;21.30;52.60
68217;DHT22;55037;52.354;4.992;2022-11-10T09:21:16;20.80;56.80
68217;DHT22;55037;52.354;4.992;2022-11-10T09:24:03;21.20;53.40
68217;DHT22;55037;52.354;4.992;2022-11-10T09:26:49;20.20;55.60
68217;DHT22;55037;52.354;4.992;2022-11-10T09:29:35;18.00;63.20
68217;DHT22;55037;52.354;4.992;2022-11-10T09:32:21;17.70;68.40
68217;DHT22;55037;52.354;4.992;2022-11-10T09:35:07;18.80;66.30
68217;DHT22;55037;52.354;4.992;2022-11-10T09:37:53;19.80;62.20
68217;DHT22;55037;52.354;4.992;2022-11-10T09:40:54;20.20;58.10
68217;DHT22;55037;52.354;4.992;2022-11-10T09:44:11;19.40;60.00
68217;DHT22;55037;52.354;4.992;2022-11-10T09:47:08;18.60;63.20
68217;DHT22;55037;52.354;4.992;2022-11-10T09:50:01;17.80;66.10
68217;DHT22;55037;52.354;4.992;2022-11-10T09:52:48;17.10;68.50
68217;DHT22;55037;52.354;4.992;2022-11-10T09:58:38;16.80;72.10
68217;DHT22;55037;52.354;4.992;2022-11-10T10:08:06;18.60;67.40
68217;DHT22;55037;52.354;4.992;2022-11-10T10:17:22;18.90;64.10
68217;DHT22;55037;52.354;4.992;2022-11-10T10:20:18;18.90;64.90
68217;DHT22;55037;52.354;4.992;2022-11-10T10:23:25;18.80;64.60
68217;DHT22;55037;52.354;4.992;2022-11-10T10:26:38;19.10;65.30
68217;DHT22;55037;52.354;4.992;2022-11-10T10:29:29;19.70;61.80
68217;DHT22;55037;52.354;4.992;2022-11-10T10:32:22;19.40;63.00
68217;DHT22;55037;52.354;4.992;2022-11-10T10:35:13;19.10;62.90
68217;DHT22;55037;52.354;4.992;2022-11-10T10:37:59;18.60;64.60
68217;DHT22;55037;52.354;4.992;2022-11-10T10:40:48;18.20;66.90
68217;DHT22;55037;52.354;4.992;2022-11-10T10:43:34;17.90;67.40
68217;DHT22;55037;52.354;4.992;2022-11-10T10:46:20;17.30;69.40
68217;DHT22;55037;52.354;4.992;2022-11-10T10:49:24;16.90;71.60
68217;DHT22;55037;52.354;4.992;2022-11-10T10:52:17;16.60;73.00
68217;DHT22;55037;52.354;4.992;2022-11-10T10:55:06;16.50;73.80
68217;DHT22;55037;52.354;4.992;2022-11-10T10:57:57;16.40;75.00
68217;DHT22;55037;52.354;4.992;2022-11-10T11:00:45;16.30;75.40
68217;DHT22;55037;52.354;4.992;2022-11-10T11:06:32;16.30;76.40
68217;DHT22;55037;52.354;4.992;2022-11-10T11:09:23;16.30;75.70
68217;DHT22;55037;52.354;4.992;2022-11-10T11:12:12;16.40;76.50
68217;DHT22;55037;52.354;4.992;2022-11-10T11:15:12;16.40;77.10
68217;DHT22;55037;52.354;4.992;2022-11-10T11:18:13;16.60;76.40
68217;DHT22;55037;52.354;4.992;2022-11-10T11:26:55;18.10;72.60
68217;DHT22;55037;52.354;4.992;2022-11-10T11:29:53;18.40;70.70
68217;DHT22;55037;52.354;4.992;2022-11-10T11:36:22;17.90;70.60
68217;DHT22;55037;52.354;4.992;2022-11-10T11:52:47;17.30;73.30
68217;DHT22;55037;52.354;4.992;2022-11-10T12:04:41;18.10;70.30
68217;DHT22;55037;52.354;4.992;2022-11-10T12:07:43;17.80;71.00
68217;DHT22;55037;52.354;4.992;2022-11-10T12:16:42;17.60;71.70
68217;DHT22;55037;52.354;4.992;2022-11-10T12:20:01;17.50;72.10
68217;DHT22;55037;52.354;4.992;2022-11-10T12:26:55;17.10;72.90
68217;DHT22;55037;52.354;4.992;2022-11-10T12:32:41;16.50;75.50
68217;DHT22;55037;52.354;4.992;2022-11-10T12:35:33;16.50;76.30
68217;DHT22;55037;52.354;4.992;2022-11-10T12:38:22;16.30;76.50
68217;DHT22;55037;52.354;4.992;2022-11-10T12:41:13;16.20;77.30
68217;DHT22;55037;52.354;4.992;2022-11-10T12:47:53;16.00;77.70
68217;DHT22;55037;52.354;4.992;2022-11-10T12:53:36;16.00;78.60
68217;DHT22;55037;52.354;4.992;2022-11-10T13:05:24;16.30;78.90
68217;DHT22;55037;52.354;4.992;2022-11-10T13:13:58;16.80;76.20
68217;DHT22;55037;52.354;4.992;2022-11-10T13:16:47;16.80;76.00
68217;DHT22;55037;52.354;4.992;2022-11-10T13:19:45;16.70;75.20
68217;DHT22;55037;52.354;4.992;2022-11-10T13:22:36;16.70;75.90
68217;DHT22;55037;52.354;4.992;2022-11-10T13:34:30;16.60;75.90
68217;DHT22;55037;52.354;4.992;2022-11-10T13:46:05;16.30;77.10
68217;DHT22;55037;52.354;4.992;2022-11-10T13:49:15;16.10;76.60
68217;DHT22;55037;52.354;4.992;2022-11-10T13:58:30;16.10;77.50
68217;DHT22;55037;52.354;4.992;2022-11-10T14:04:03;16.00;77.60
68217;DHT22;55037;52.354;4.992;2022-11-10T14:06:52;15.90;77.50
68217;DHT22;55037;52.354;4.992;2022-11-10T14:09:49;15.70;78.30
68217;DHT22;55037;52.354;4.992;2022-11-10T14:12:38;15.60;78.90
68217;DHT22;55037;52.354;4.992;2022-11-10T14:15:46;15.60;79.30
68217;DHT22;55037;52.354;4.992;2022-11-10T14:18:39;15.60;79.30
68217;DHT22;55037;52.354;4.992;2022-11-10T14:21:35;15.60;79.30
68217;DHT22;55037;52.354;4.992;2022-11-10T14:25:13;15.60;79.20
68217;DHT22;55037;52.354;4.992;2022-11-10T14:27:50;15.70;79.20
68217;DHT22;55037;52.354;4.992;2022-11-10T14:30:49;15.70;79.20
68217;DHT22;55037;52.354;4.992;2022-11-10T14:33:36;15.70;79.00
68217;DHT22;55037;52.354;4.992;2022-11-10T14:36:22;15.70;78.70
68217;DHT22;55037;52.354;4.992;2022-11-10T14:39:08;15.70;78.00
68217;DHT22;55037;52.354;4.992;2022-11-10T14:41:55;15.70;78.80
68217;DHT22;55037;52.354;4.992;2022-11-10T14:44:42;15.70;78.80
68217;DHT22;55037;52.354;4.992;2022-11-10T14:47:29;15.70;78.70
68217;DHT22;55037;52.354;4.992;2022-11-10T14:56:21;15.70;79.10
68217;DHT22;55037;52.354;4.992;2022-11-10T14:59:10;15.70;79.00
68217;DHT22;55037;52.354;4.992;2022-11-10T15:01:58;15.70;79.20
68217;DHT22;55037;52.354;4.992;2022-11-10T15:04:46;15.70;79.00
68217;DHT22;55037;52.354;4.992;2022-11-10T15:07:34;15.70;79.00
68217;DHT22;55037;52.354;4.992;2022-11-10T15:10:24;15.60;79.10
68217;DHT22;55037;52.354;4.992;2022-11-10T15:16:19;15.60;79.10
68217;DHT22;55037;52.354;4.992;2022-11-10T15:19:31;15.60;79.20
68217;DHT22;55037;52.354;4.992;2022-11-10T15:22:28;15.60;79.10
68217;DHT22;55037;52.354;4.992;2022-11-10T15:25:18;15.60;79.20
68217;DHT22;55037;52.354;4.992;2022-11-10T15:31:04;15.60;80.50
68217;DHT22;55037;52.354;4.992;2022-11-10T15:34:03;15.50;79.60
68217;DHT22;55037;52.354;4.992;2022-11-10T15:37:11;15.50;79.60
68217;DHT22;55037;52.354;4.992;2022-11-10T15:46:14;15.50;79.30
68217;DHT22;55037;52.354;4.992;2022-11-10T15:49:03;15.50;79.20
68217;DHT22;55037;52.354;4.992;2022-11-10T15:51:56;15.40;79.10
68217;DHT22;55037;52.354;4.992;2022-11-10T15:54:42;15.40;79.20
68217;DHT22;55037;52.354;4.992;2022-11-10T15:57:29;15.40;79.30
68217;DHT22;55037;52.354;4.992;2022-11-10T16:00:15;15.40;79.10
68217;DHT22;55037;52.354;4.992;2022-11-10T16:03:01;15.40;79.20
68217;DHT22;55037;52.354;4.992;2022-11-10T16:05:47;15.30;79.40
68217;DHT22;55037;52.354;4.992;2022-11-10T16:08:33;15.30;79.40
68217;DHT22;55037;52.354;4.992;2022-11-10T16:11:20;15.30;79.60
68217;DHT22;55037;52.354;4.992;2022-11-10T16:14:15;15.20;79.50
68217;DHT22;55037;52.354;4.992;2022-11-10T16:17:02;15.20;79.70
68217;DHT22;55037;52.354;4.992;2022-11-10T16:19:48;15.20;79.70
68217;DHT22;55037;52.354;4.992;2022-11-10T16:22:34;15.10;79.70
68217;DHT22;55037;52.354;4.992;2022-11-10T16:25:20;15.10;79.80
68217;DHT22;55037;52.354;4.992;2022-11-10T16:28:16;15.00;79.00
68217;DHT22;55037;52.354;4.992;2022-11-10T16:31:04;15.00;79.80
68217;DHT22;55037;52.354;4.992;2022-11-10T16:33:52;15.00;79.80
68217;DHT22;55037;52.354;4.992;2022-11-10T16:36:38;15.00;79.70
68217;DHT22;55037;52.354;4.992;2022-11-10T16:39:26;15.00;79.80
68217;DHT22;55037;52.354;4.992;2022-11-10T16:42:11;15.00;79.90
68217;DHT22;55037;52.354;4.992;2022-11-10T16:44:57;15.00;79.80
68217;DHT22;55037;52.354;4.992;2022-11-10T16:47:44;14.90;79.80
68217;DHT22;55037;52.354;4.992;2022-11-10T16:50:35;14.90;79.00
68217;DHT22;55037;52.354;4.992;2022-11-10T16:53:24;14.90;79.50
68217;DHT22;55037;52.354;4.992;2022-11-10T16:56:15;14.90;79.80
68217;DHT22;55037;52.354;4.992;2022-11-10T16:59:01;14.80;79.60
68217;DHT22;55037;52.354;4.992;2022-11-10T17:01:48;14.80;79.70
68217;DHT22;55037;52.354;4.992;2022-11-10T17:04:34;14.70;79.60
68217;DHT22;55037;52.354;4.992;2022-11-10T17:07:24;14.70;79.70
68217;DHT22;55037;52.354;4.992;2022-11-10T17:10:18;14.60;79.70
68217;DHT22;55037;52.354;4.992;2022-11-10T17:13:04;14.50;79.90
68217;DHT22;55037;52.354;4.992;2022-11-10T17:15:51;14.40;80.10
68217;DHT22;55037;52.354;4.992;2022-11-10T17:18:38;14.40;80.20
68217;DHT22;55037;52.354;4.992;2022-11-10T17:21:24;14.40;80.30
68217;DHT22;55037;52.354;4.992;2022-11-10T17:24:17;14.30;80.50
68217;DHT22;55037;52.354;4.992;2022-11-10T17:27:03;14.30;80.50
68217;DHT22;55037;52.354;4.992;2022-11-10T17:29:49;14.20;80.50
68217;DHT22;55037;52.354;4.992;2022-11-10T17:32:36;14.20;80.70
68217;DHT22;55037;52.354;4.992;2022-11-10T17:35:48;14.10;80.70
68217;DHT22;55037;52.354;4.992;2022-11-10T17:38:35;14.20;80.80
68217;DHT22;55037;52.354;4.992;2022-11-10T17:41:20;14.20;80.70
68217;DHT22;55037;52.354;4.992;2022-11-10T17:44:14;14.10;80.70
68217;DHT22;55037;52.354;4.992;2022-11-10T17:47:00;14.10;80.70
68217;DHT22;55037;52.354;4.992;2022-11-10T17:49:46;14.00;80.10
68217;DHT22;55037;52.354;4.992;2022-11-10T17:52:32;14.00;81.00
68217;DHT22;55037;52.354;4.992;2022-11-10T17:55:23;13.90;81.00
68217;DHT22;55037;52.354;4.992;2022-11-10T17:58:16;14.00;82.30
68217;DHT22;55037;52.354;4.992;2022-11-10T18:01:05;13.90;81.40
68217;DHT22;55037;52.354;4.992;2022-11-10T18:03:51;13.90;81.50
68217;DHT22;55037;52.354;4.992;2022-11-10T18:06:37;13.80;81.60
68217;DHT22;55037;52.354;4.992;2022-11-10T18:09:23;13.80;81.90
68217;DHT22;55037;52.354;4.992;2022-11-10T18:12:09;13.70;81.90
68217;DHT22;55037;52.354;4.992;2022-11-10T18:14:55;13.70;82.00
68217;DHT22;55037;52.354;4.992;2022-11-10T18:17:41;13.80;81.90
68217;DHT22;55037;52.354;4.992;2022-11-10T18:20:27;13.80;81.80
68217;DHT22;55037;52.354;4.992;2022-11-10T18:23:13;13.70;81.60
68217;DHT22;55037;52.354;4.992;2022-11-10T18:26:04;13.80;81.70
68217;DHT22;55037;52.354;4.992;2022-11-10T18:28:50;13.80;81.50
68217;DHT22;55037;52.354;4.992;2022-11-10T18:31:36;13.70;81.50
68217;DHT22;55037;52.354;4.992;2022-11-10T18:34:22;13.70;81.60
68217;DHT22;55037;52.354;4.992;2022-11-10T18:37:07;13.70;81.70
68217;DHT22;55037;52.354;4.992;2022-11-10T18:39:53;13.60;80.90
68217;DHT22;55037;52.354;4.992;2022-11-10T18:42:39;13.70;81.80
68217;DHT22;55037;52.354;4.992;2022-11-10T18:45:25;13.70;81.80
68217;DHT22;55037;52.354;4.992;2022-11-10T18:48:11;13.70;81.80
68217;DHT22;55037;52.354;4.992;2022-11-10T18:50:57;13.50;82.80
68217;DHT22;55037;52.354;4.992;2022-11-10T18:53:42;13.70;81.90
68217;DHT22;55037;52.354;4.992;2022-11-10T18:56:28;13.60;81.90
68217;DHT22;55037;52.354;4.992;2022-11-10T18:59:14;13.60;82.00
68217;DHT22;55037;52.354;4.992;2022-11-10T19:02:00;13.60;82.20
68217;DHT22;55037;52.354;4.992;2022-11-10T19:04:46;13.50;82.30
68217;DHT22;55037;52.354;4.992;2022-11-10T19:07:37;13.50;82.30
68217;DHT22;55037;52.354;4.992;2022-11-10T19:10:23;13.50;82.40
68217;DHT22;55037;52.354;4.992;2022-11-10T19:13:09;13.50;82.60
68217;DHT22;55037;52.354;4.992;2022-11-10T19:15:55;13.60;82.60
68217;DHT22;55037;52.354;4.992;2022-11-10T19:18:44;13.60;82.40
68217;DHT22;55037;52.354;4.992;2022-11-10T19:21:30;13.60;82.40
68217;DHT22;55037;52.354;4.992;2022-11-10T19:24:16;13.60;82.30
68217;DHT22;55037;52.354;4.992;2022-11-10T19:27:12;13.60;82.30
68217;DHT22;55037;52.354;4.992;2022-11-10T19:29:58;13.60;82.30
68217;DHT22;55037;52.354;4.992;2022-11-10T19:32:44;13.50;82.40
68217;DHT22;55037;52.354;4.992;2022-11-10T19:35:30;13.50;82.70
68217;DHT22;55037;52.354;4.992;2022-11-10T19:38:17;13.40;82.80
68217;DHT22;55037;52.354;4.992;2022-11-10T19:41:24;13.40;83.10
68217;DHT22;55037;52.354;4.992;2022-11-10T19:44:10;13.40;83.20
68217;DHT22;55037;52.354;4.992;2022-11-10T19:46:56;13.40;83.30
68217;DHT22;55037;52.354;4.992;2022-11-10T19:49:42;13.40;83.30
68217;DHT22;55037;52.354;4.992;2022-11-10T19:52:28;13.40;83.50
68217;DHT22;55037;52.354;4.992;2022-11-10T19:55:14;13.40;83.60
68217;DHT22;55037;52.354;4.992;2022-11-10T19:58:00;13.50;82.50